Latest Weather Observations for Jabiru

IDD60801

Issued at 9:31 pm CST Tuesday 28 March 2017 (issued every 30 minutes, with the page automatically refreshed every 10 minutes)

About weather observations | Map of weather stations | Latest weather observations for NT | Other Formats
Station Details ID: 014198 Name: JABIRU AIRPORT Lat: -12.66 Lon: 132.89 Height: 26.5 m
Data from the previous 72 hours. | See also: Recent months at Jabiru
Date/Time
CST
Temp
°C
App
Temp
°C
Dew
Point
°C
Rel
Hum
%
Delta-T
°C
Wind Press
QNH
hPa
Press
MSL
hPa
Rain since
9am
mm
Dir  Spd
km/h
Gust
km/h
Spd
kts
Gust
kts
28/09:30pm 30.5 36.5 26.0 77 3.2 NW 6 13 3 7 1008.1 1007.9 0.0
28/09:00pm 31.1 38.0 25.7 73 3.8 CALM 0 0 0 0 1007.6 1007.4 0.0
28/08:30pm 31.3 37.1 26.1 74 3.7 W 7 9 4 5 1007.2 1007.0 0.0
28/08:00pm 31.8 37.1 24.9 67 4.9 W 6 7 3 4 1007.3 1007.1 0.0
28/07:30pm 32.3 38.5 24.6 64 5.4 CALM 0 0 0 0 1006.7 1006.5 0.0
28/07:00pm 32.4 37.3 24.4 62 5.6 WSW 6 7 3 4 1006.4 1006.2 0.0
28/06:30pm 33.5 38.1 24.1 58 6.6 SW 7 9 4 5 1006.1 1005.9 0.0
28/06:00pm 34.7 38.3 23.7 52 7.7 W 11 17 6 9 1005.1 1004.9 0.0
28/05:30pm 35.1 38.4 23.8 52 7.9 W 13 19 7 10 1005.0 1004.8 0.0
28/05:00pm 35.3 38.9 24.3 53 7.8 W 13 19 7 10 1005.2 1005.0 0.0
28/04:30pm 35.2 37.6 22.9 49 8.5 W 15 20 8 11 1005.6 1005.4 0.0
28/04:00pm 34.8 37.5 23.5 52 7.9 W 15 22 8 12 1005.8 1005.6 0.0
28/03:30pm 34.7 38.1 24.0 53 7.5 SW 13 20 7 11 1006.2 1006.0 0.0
28/03:00pm 34.7 37.9 23.7 52 7.7 WSW 13 22 7 12 1006.6 1006.4 0.0
28/02:30pm 34.2 37.3 24.2 56 7.0 SW 15 20 8 11 1006.8 1006.6 0.0
28/02:00pm 34.4 37.4 24.6 56 6.9 WSW 17 26 9 14 1007.1 1006.9 0.0
28/01:30pm 33.9 36.5 23.9 56 7.0 W 17 24 9 13 1007.6 1007.4 0.0
28/01:00pm 32.8 35.5 23.4 57 6.5 WSW 15 24 8 13 1008.2 1008.0 0.0
28/12:30pm 32.8 35.2 23.7 58 6.3 WSW 17 24 9 13 1008.7 1008.5 0.0
28/12:00pm 32.1 34.2 23.1 59 6.2 WSW 17 30 9 16 1009.3 1009.1 0.0
28/11:30am 31.8 33.6 23.6 62 5.7 WSW 20 28 11 15 1009.7 1009.5 0.0
28/11:00am 31.5 34.0 24.4 66 5.0 W 19 26 10 14 1010.2 1010.0 0.0
28/10:30am 30.8 33.7 24.4 68 4.5 WSW 17 26 9 14 1010.5 1010.3 0.0
28/10:00am 29.8 32.7 24.4 73 3.8 W 17 26 9 14 1010.7 1010.5 0.0
28/09:30am 29.3 31.5 24.2 74 3.5 W 20 30 11 16 1010.9 1010.7 0.0
28/09:00am 28.5 32.8 25.5 84 2.1 W 13 22 7 12 1011.1 1010.9 9.0
28/08:30am 27.8 33.1 25.8 89 1.4 WSW 9 17 5 9 1010.8 1010.6 9.0
28/08:00am 26.8 33.4 25.8 94 0.7 WSW 2 9 1 5 1010.5 1010.3 9.0
28/07:30am 26.3 32.9 25.8 97 0.4 SW 2 7 1 4 1009.9 1009.7 9.0
28/07:00am 26.0 32.6 25.3 96 0.5 CALM 0 0 0 0 1009.8 1009.6 9.0
28/06:30am 26.0 32.6 25.3 96 0.5 CALM 0 0 0 0 1009.6 1009.4 9.0
28/06:00am 26.3 32.4 25.6 96 0.5 WSW 4 6 2 3 1009.4 1009.2 9.0
28/05:30am 26.3 32.0 25.6 96 0.5 WNW 6 7 3 4 1009.1 1008.9 9.0
28/05:00am 26.6 33.0 26.1 97 0.4 N 4 7 2 4 1008.8 1008.6 9.0
28/04:30am 26.6 33.6 25.9 96 0.5 CALM 0 0 0 0 1008.7 1008.5 9.0
28/04:00am 26.6 32.6 26.1 97 0.4 N 6 7 3 4 1008.5 1008.3 9.0
28/03:30am 26.8 33.8 25.9 95 0.6 CALM 0 0 0 0 1008.6 1008.4 9.0
28/03:00am 26.7 33.7 25.8 95 0.6 CALM 0 0 0 0 1008.4 1008.2 9.0
28/02:30am 26.7 33.7 25.8 95 0.6 CALM 0 0 0 0 1008.6 1008.4 9.0
28/02:00am 26.7 32.7 26.0 96 0.5 E 6 6 3 3 1009.0 1008.8 9.0
28/01:30am 26.8 32.8 26.3 97 0.4 NE 7 11 4 6 1009.1 1008.9 9.0
28/01:00am 26.8 32.8 26.3 97 0.4 NW 7 11 4 6 1009.0 1008.8 9.0
28/12:30am 26.9 34.0 26.0 95 0.6 CALM 0 0 0 0 1009.4 1009.2 9.0
28/12:00am 26.9 34.0 26.0 95 0.6 CALM 0 0 0 0 1009.6 1009.4 8.8
 
Date/Time
CST
Temp
°C
App
Temp
°C
Dew
Point
°C
Rel
Hum
%
Delta-T
°C
Wind Press
QNH
hPa
Press
MSL
hPa
Rain since
9am
mm
Dir  Spd
km/h
Gust
km/h
Spd
kts
Gust
kts
27/11:30pm 26.9 33.6 25.9 94 0.7 SSE 2 6 1 3 1009.7 1009.5 8.8
27/11:00pm 26.9 33.6 25.9 94 0.7 SW 2 7 1 4 1010.0 1009.8 8.8
27/10:30pm 26.8 32.6 25.8 94 0.7 WSW 6 7 3 4 1010.2 1010.0 8.8
27/10:00pm 26.9 33.0 25.7 93 0.8 E 4 7 2 4 1010.5 1010.3 8.8
27/09:30pm 26.9 32.1 25.7 93 0.8 W 9 11 5 6 1010.3 1010.1 8.8
27/09:00pm 26.7 32.2 25.3 92 1.0 SSE 6 7 3 4 1010.4 1010.2 8.6
27/08:30pm 26.6 31.1 24.6 89 1.4 ESE 9 15 5 8 1010.5 1010.3 6.8
27/08:00pm 27.4 33.6 25.2 88 1.5 E 2 7 1 4 1009.0 1008.8 4.6
27/07:30pm 27.3 33.2 25.3 89 1.4 SSE 4 7 2 4 1009.0 1008.8 4.6
27/07:00pm 27.3 32.8 24.7 86 1.8 NW 4 6 2 3 1008.5 1008.3 4.6
27/06:30pm 27.3 32.2 24.6 85 1.9 N 7 11 4 6 1007.9 1007.7 4.6
27/06:00pm 27.5 32.8 24.9 86 1.8 NNE 6 9 3 5 1007.7 1007.5 4.6
27/05:30pm 27.9 31.1 25.5 87 1.7 NNW 19 30 10 16 1007.4 1007.2 2.0
27/05:00pm 30.6 33.4 24.3 69 4.4 N 17 24 9 13 1007.0 1006.8 0.0
27/04:30pm 31.7 34.6 25.1 68 4.7 NNW 19 26 10 14 1006.7 1006.5 0.0
27/04:00pm 34.8 38.1 23.2 51 8.1 WSW 11 17 6 9 1006.4 1006.2 0.0
27/03:30pm 33.7 37.5 23.4 55 7.2 SSW 9 13 5 7 1007.0 1006.8 0.0
27/03:00pm 34.4 38.4 23.7 53 7.5 SSW 9 19 5 10 1006.8 1006.6 0.0
27/02:30pm 34.4 37.1 22.8 51 8.0 W 13 22 7 12 1007.4 1007.2 0.0
27/02:00pm 34.1 36.8 23.5 54 7.4 W 15 22 8 12 1007.9 1007.7 0.0
27/01:30pm 33.8 36.7 23.2 54 7.4 W 13 24 7 13 1008.4 1008.2 0.0
27/01:00pm 33.6 36.6 23.3 55 7.1 WSW 13 20 7 11 1008.8 1008.6 0.0
27/12:30pm 32.7 35.5 23.6 58 6.3 WNW 15 20 8 11 1009.5 1009.3 0.0
27/12:00pm 32.7 35.6 23.9 60 6.1 W 15 19 8 10 1009.9 1009.7 0.0
27/11:30am 31.8 35.5 23.3 60 5.9 WSW 9 17 5 9 1010.3 1010.1 0.0
27/11:00am 31.3 34.6 23.9 64 5.1 WNW 13 20 7 11 1010.9 1010.7 0.0
27/10:30am 30.7 34.2 23.6 66 4.9 WSW 11 17 6 9 1011.2 1011.0 0.0
27/10:00am 30.6 33.9 23.8 67 4.7 W 13 17 7 9 1011.4 1011.2 0.0
27/09:30am 29.9 34.1 24.1 71 4.0 WSW 9 15 5 8 1011.6 1011.4 0.0
27/09:00am 29.4 33.0 24.3 74 3.6 W 13 20 7 11 1011.5 1011.3 0.2
27/08:30am 28.5 33.6 24.9 81 2.5 W 7 11 4 6 1011.4 1011.2 0.2
27/08:00am 27.8 34.3 25.0 85 2.0 CALM 0 0 0 0 1011.2 1011.0 0.2
27/07:30am 27.0 33.7 25.4 91 1.1 CALM 0 0 0 0 1011.0 1010.8 0.2
27/07:00am 26.4 33.0 25.2 93 0.8 CALM 0 0 0 0 1010.9 1010.7 0.2
27/06:30am 26.5 33.3 25.6 95 0.6 CALM 0 0 0 0 1010.7 1010.5 0.2
27/06:00am 26.6 33.1 25.0 91 1.1 CALM 0 0 0 0 1010.6 1010.4 0.2
27/05:30am 26.6 33.1 25.0 91 1.1 CALM 0 0 0 0 1010.2 1010.0 0.2
27/05:00am 26.9 33.7 25.5 92 1.0 CALM 0 0 0 0 1010.2 1010.0 0.2
27/04:30am 26.9 33.5 25.3 91 1.1 CALM 0 0 0 0 1010.1 1009.9 0.2
27/04:00am 26.6 33.1 25.0 91 1.1 CALM 0 0 0 0 1009.9 1009.7 0.2
27/03:30am 26.9 33.3 24.9 89 1.4 CALM 0 0 0 0 1010.1 1009.9 0.2
27/03:00am 26.7 33.2 25.1 91 1.1 CALM 0 0 0 0 1010.1 1009.9 0.2
27/02:30am 26.8 33.3 25.0 90 1.3 CALM 0 0 0 0 1010.1 1009.9 0.2
27/02:00am 27.1 33.1 25.5 91 1.1 ESE 4 6 2 3 1010.4 1010.2 0.2
27/01:30am 27.2 33.8 25.2 89 1.4 CALM 0 0 0 0 1010.6 1010.4 0.2
27/01:00am 27.5 33.9 24.9 86 1.8 CALM 0 0 0 0 1010.8 1010.6 0.2
27/12:30am 27.8 34.4 25.2 86 1.8 CALM 0 6 0 3 1011.1 1010.9 0.2
27/12:00am 27.9 34.0 25.1 85 2.0 NW 2 7 1 4 1011.4 1011.2 0.2
 
Date/Time
CST
Temp
°C
App
Temp
°C
Dew
Point
°C
Rel
Hum
%
Delta-T
°C
Wind Press
QNH
hPa
Press
MSL
hPa
Rain since
9am
mm
Dir  Spd
km/h
Gust
km/h
Spd
kts
Gust
kts
26/11:30pm 27.9 34.4 25.1 85 2.0 CALM 0 6 0 3 1011.4 1011.2 0.2
26/11:00pm 28.0 34.6 25.2 85 2.0 CALM 0 0 0 0 1011.4 1011.2 0.2
26/10:30pm 28.1 33.3 25.1 84 2.1 WNW 7 9 4 5 1011.2 1011.0 0.2
26/10:00pm 28.3 33.6 24.9 82 2.4 WNW 6 7 3 4 1011.2 1011.0 0.2
26/09:30pm 28.5 33.6 24.7 80 2.7 N 6 7 3 4 1010.6 1010.4 0.2
26/09:00pm 28.4 33.3 24.4 79 2.8 N 6 7 3 4 1010.3 1010.1 0.2
26/08:30pm 28.9 33.9 24.5 77 3.1 NNW 6 9 3 5 1009.9 1009.7 0.2
26/08:00pm 29.2 33.8 24.1 74 3.5 NNW 7 9 4 5 1009.7 1009.5 0.2
26/07:30pm 29.6 34.0 24.5 74 3.6 NW 9 13 5 7 1009.1 1008.9 0.2
26/07:00pm 30.1 34.8 24.3 71 4.0 NW 7 9 4 5 1008.5 1008.3 0.2
26/06:30pm 30.7 33.8 23.6 66 4.9 NNW 13 20 7 11 1007.9 1007.7 0.2
26/06:00pm 31.2 34.3 24.1 66 5.0 NNW 15 24 8 13 1007.4 1007.2 0.2
26/05:30pm 31.5 34.6 23.6 63 5.5 NNW 13 20 7 11 1007.1 1006.9 0.2
26/05:00pm 31.9 35.0 24.2 63 5.4 N 15 20 8 11 1006.3 1006.1 0.2
26/04:30pm 33.0 35.6 23.3 56 6.7 N 15 22 8 12 1006.1 1005.9 0.2
26/04:00pm 33.7 36.1 23.7 56 7.0 NNW 17 24 9 13 1006.4 1006.2 0.2
26/03:30pm 34.2 36.6 23.6 54 7.4 NW 17 24 9 13 1006.3 1006.1 0.2
26/03:00pm 33.6 36.7 23.6 56 7.0 NNW 13 24 7 13 1006.6 1006.4 0.2
26/02:30pm 33.1 34.7 22.8 54 7.1 NNW 19 26 10 14 1007.0 1006.8 0.2
26/02:00pm 32.8 35.6 24.3 61 6.0 NNW 17 24 9 13 1007.5 1007.3 0.2
26/01:30pm 33.0 36.1 24.2 60 6.2 N 15 22 8 12 1007.7 1007.5 0.2
26/01:00pm 32.5 34.9 23.7 59 6.1 NNW 17 24 9 13 1008.3 1008.1 0.2
26/12:30pm 32.3 35.7 24.6 64 5.4 NNW 15 26 8 14 1008.8 1008.6 0.2
26/12:00pm 30.9 34.0 24.1 67 4.7 NNW 15 24 8 13 1009.5 1009.3 0.2
26/11:30am 31.4 35.1 24.5 67 4.8 NNW 13 24 7 13 1009.9 1009.7 0.2
26/11:00am 31.7 35.2 24.8 67 4.9 N 15 22 8 12 1010.5 1010.3 0.2
26/10:30am 31.4 35.3 25.5 71 4.2 N 15 20 8 11 1010.6 1010.4 0.2
26/10:00am 29.7 33.1 24.1 72 3.9 N 13 17 7 9 1010.6 1010.4 0.2
26/09:30am 29.5 33.5 25.0 77 3.2 N 13 20 7 11 1010.6 1010.4 0.0
26/09:00am 28.6 33.2 24.8 80 2.7 N 9 19 5 10 1010.5 1010.3 10.4
26/08:30am 27.6 32.2 24.8 85 2.0 N 9 11 5 6 1010.3 1010.1 10.4
26/08:00am 27.2 32.8 25.4 90 1.3 ENE 6 7 3 4 1009.8 1009.6 10.4
26/07:30am 26.2 31.8 25.5 96 0.5 E 6 7 3 4 1009.7 1009.5 10.4
26/07:00am 25.5 32.0 25.0 97 0.3 CALM 0 6 0 3 1009.5 1009.3 10.4
26/06:30am 25.5 30.8 25.0 97 0.3 E 6 9 3 5 1009.2 1009.0 10.4
26/06:00am 25.5 30.8 25.0 97 0.3 ESE 6 7 3 4 1008.9 1008.7 10.4
26/05:30am 25.5 30.6 25.0 97 0.3 ESE 7 9 4 5 1008.6 1008.4 10.4
26/05:00am 25.6 31.0 25.1 97 0.3 E 6 7 3 4 1008.3 1008.1 10.4
26/04:30am 25.7 30.8 25.0 96 0.5 ESE 7 9 4 5 1007.8 1007.6 10.4
26/04:00am 25.8 32.3 25.1 96 0.5 CALM 0 0 0 0 1007.8 1007.6 10.4
26/03:30am 25.8 32.2 24.9 95 0.6 CALM 0 0 0 0 1008.2 1008.0 10.4
26/03:00am 26.0 32.5 25.0 94 0.7 CALM 0 0 0 0 1008.4 1008.2 10.4
26/02:30am 25.8 32.2 24.9 95 0.6 CALM 0 0 0 0 1008.6 1008.4 10.4
26/02:00am 25.8 30.9 24.9 95 0.6 E 7 7 4 4 1008.9 1008.7 10.4
26/01:30am 26.0 30.7 25.0 94 0.7 E 9 11 5 6 1009.2 1009.0 10.4
26/01:00am 26.4 33.0 25.2 93 0.8 CALM 0 0 0 0 1009.6 1009.4 10.4
26/12:30am 26.5 32.8 25.3 93 0.8 E 2 6 1 3 1009.9 1009.7 10.4
26/12:00am 26.5 33.0 25.1 92 1.0 CALM 0 0 0 0 1010.1 1009.9 10.4
 
Date/Time
CST
Temp
°C
App
Temp
°C
Dew
Point
°C
Rel
Hum
%
Delta-T
°C
Wind Press
QNH
hPa
Press
MSL
hPa
Rain since
9am
mm
Dir  Spd
km/h
Gust
km/h
Spd
kts
Gust
kts
25/11:30pm 26.6 31.9 25.0 91 1.1 ENE 6 7 3 4 1010.1 1009.9 10.4
25/11:00pm 26.4 31.6 24.8 91 1.1 SE 6 7 3 4 1009.8 1009.6 10.4
25/10:30pm 26.4 32.7 24.8 91 1.1 CALM 0 6 0 3 1009.8 1009.6 10.4
25/10:00pm 26.3 30.9 24.7 91 1.1 E 9 11 5 6 1009.9 1009.7 10.4

Other Formats:

Comma delimited format used in spreadsheet applications
http://www.bom.gov.au/fwo/IDD60801/IDD60801.94137.axf

JavaScript Object Notation format (JSON) in row-major order
http://www.bom.gov.au/fwo/IDD60801/IDD60801.94137.json